Time;durP1;ratioP1;P1;durP2;ratioP2;P2;SDS_P1;SDS_P2;PMS_P1;PMS_P2;Temp;Humidity;BMP_temperature;BMP_pressure;BME280_temperature;BME280_humidity;BME280_pressure;Samples;Min_cycle;Max_cycle;Signal;HPM_P1;HPM_P2
2022/01/29 00:01:10;;;;;;;17.00;5.17;;;;;;;-0.06;79.30;99924.66;1771240;81;20972;-38
2022/01/29 00:03:37;;;;;;;12.50;4.28;;;;;;;-0.04;79.27;99930.67;1771677;81;21505;-39
2022/01/29 00:06:04;;;;;;;10.58;3.50;;;;;;;-0.08;79.18;99920.77;1771839;81;21000;-40
2022/01/29 00:08:31;;;;;;;10.23;3.75;;;;;;;-0.04;79.44;99925.50;1772067;81;20990;-39
2022/01/29 00:11:06;;;;;;;8.50;3.50;;;;;;;-0.11;79.11;99925.97;1771736;81;21000;-40
2022/01/29 00:13:24;;;;;;;;;;;;;;;-0.09;79.31;99924.65;1772412;81;20972;-39
2022/01/29 00:15:50;;;;;;;12.10;3.65;;;;;;;-0.20;78.95;99933.70;1771731;81;20113;-39
2022/01/29 00:18:16;;;;;;;12.03;4.35;;;;;;;-0.20;79.44;99928.54;1771777;81;21667;-40
2022/01/29 00:20:41;;;;;;;9.28;3.12;;;;;;;-0.21;79.38;99933.30;1771713;81;21588;-40
2022/01/29 00:23:07;;;;;;;11.03;4.17;;;;;;;-0.22;79.54;99932.86;1771803;81;21574;-39
2022/01/29 00:25:33;;;;;;;13.45;4.35;;;;;;;-0.27;79.44;99926.86;1771688;81;20999;-40
2022/01/29 00:27:59;;;;;;;9.63;4.12;;;;;;;-0.29;79.44;99933.72;1771621;80;20976;-39
2022/01/29 00:30:32;;;;;;;12.50;3.85;;;;;;;-0.29;79.61;99932.43;1771639;81;20999;-39
2022/01/29 00:32:53;;;;;;;8.08;3.77;;;;;;;-0.22;79.76;99937.61;1770613;81;21040;-39
2022/01/29 00:35:19;;;;;;;10.48;4.10;;;;;;;-0.24;79.67;99927.72;1771688;81;21000;-39
2022/01/29 00:37:45;;;;;;;10.13;4.30;;;;;;;-0.26;79.76;99937.16;1771667;81;20960;-39
2022/01/29 00:40:12;;;;;;;10.32;4.28;;;;;;;-0.25;79.63;99929.00;1771702;80;20968;-39
2022/01/29 00:42:37;;;;;;;12.28;4.58;;;;;;;-0.22;79.77;99931.56;1771775;81;20968;-40
2022/01/29 00:45:06;;;;;;;14.25;4.03;;;;;;;-0.21;79.79;99933.30;1771760;81;21489;-39
2022/01/29 00:47:32;;;;;;;12.05;4.78;;;;;;;-0.24;79.60;99939.34;1773566;80;21019;-40
2022/01/29 00:49:58;;;;;;;11.75;4.65;;;;;;;-0.20;79.68;99946.63;1778798;80;20971;-39
2022/01/29 00:52:24;;;;;;;10.98;4.60;;;;;;;-0.23;79.58;99945.37;1778766;81;21532;-39
2022/01/29 00:54:50;;;;;;;13.15;4.87;;;;;;;-0.21;79.70;99954.83;1778874;80;21041;-40
2022/01/29 00:57:16;;;;;;;10.68;3.87;;;;;;;-0.20;79.87;99949.22;1778870;80;20995;-39
2022/01/29 00:59:42;;;;;;;13.25;5.00;;;;;;;-0.24;79.60;99946.22;1778879;81;21030;-39
2022/01/29 01:02:11;;;;;;;10.18;4.05;;;;;;;-0.22;79.81;99944.48;1778800;80;21536;-39
2022/01/29 01:04:39;;;;;;;11.90;4.05;;;;;;;-0.25;79.76;99947.95;1778778;81;21011;-40
2022/01/29 01:07:09;;;;;;;;;;;;;;;-0.22;79.90;99948.36;1781440;81;21007;-39
2022/01/29 01:09:36;;;;;;;13.18;4.10;;;;;;;-0.26;79.79;99946.66;1778668;81;20535;-39
2022/01/29 01:12:02;;;;;;;10.10;3.53;;;;;;;-0.28;79.69;99944.06;1779034;81;20964;-38
2022/01/29 01:14:28;;;;;;;13.50;3.63;;;;;;;-0.30;79.83;99934.60;1779013;80;21476;-38
2022/01/29 01:16:54;;;;;;;8.00;3.58;;;;;;;-0.35;79.92;99937.61;1778793;80;20988;-39
2022/01/29 01:19:25;;;;;;;9.08;4.12;;;;;;;-0.33;80.20;99947.08;1778910;80;21426;-39
2022/01/29 01:21:47;;;;;;;;;;;;;;;-0.36;80.26;99935.88;1781342;81;21476;-39
2022/01/29 01:24:13;;;;;;;9.98;4.00;;;;;;;-0.43;80.21;99943.64;1778712;81;20104;-39
2022/01/29 01:26:38;;;;;;;9.95;4.87;;;;;;;-0.41;80.51;99935.45;1778951;81;21003;-40
2022/01/29 01:29:04;;;;;;;8.98;3.80;;;;;;;-0.45;80.47;99931.16;1778833;81;21500;-39
2022/01/29 01:31:30;;;;;;;8.53;3.80;;;;;;;-0.45;80.55;99926.44;1778826;80;20967;-40
2022/01/29 01:33:56;;;;;;;9.50;3.98;;;;;;;-0.47;80.65;99925.58;1778748;81;20987;-38
2022/01/29 01:36:24;;;;;;;10.43;3.30;;;;;;;-0.45;80.72;99908.34;1778744;81;21026;-40
2022/01/29 01:38:54;;;;;;;10.32;3.45;;;;;;;-0.45;80.72;99908.34;1778462;80;20998;-41
2022/01/29 01:41:22;;;;;;;11.45;4.67;;;;;;;-0.42;80.46;99923.83;1778072;80;21038;-39
2022/01/29 01:43:44;;;;;;;10.28;3.35;;;;;;;-0.41;80.57;99917.81;1777776;80;21466;-39
2022/01/29 01:46:10;;;;;;;8.10;3.33;;;;;;;-0.43;80.60;99908.77;1778780;81;20999;-40
2022/01/29 01:48:36;;;;;;;8.43;3.58;;;;;;;-0.43;80.73;99909.20;1778523;80;20972;-39
2022/01/29 01:51:02;;;;;;;8.28;3.33;;;;;;;-0.45;80.76;99902.73;1778791;81;21042;-38
2022/01/29 01:53:28;;;;;;;8.38;3.80;;;;;;;-0.46;80.87;99910.48;1778722;81;20991;-38
2022/01/29 01:55:54;;;;;;;13.78;4.00;;;;;;;-0.47;80.85;99907.49;1778751;80;20999;-37
2022/01/29 01:58:20;;;;;;;10.15;4.17;;;;;;;-0.49;80.96;99901.03;1778740;81;21047;-38
2022/01/29 02:00:45;;;;;;;12.70;4.55;;;;;;;-0.45;80.91;99900.16;1778732;80;20998;-38
2022/01/29 02:03:11;;;;;;;14.05;5.87;;;;;;;-0.46;80.82;99896.27;1778879;80;20984;-38
2022/01/29 02:05:38;;;;;;;10.98;4.85;;;;;;;-0.46;80.89;99891.11;1778744;81;20983;-37
2022/01/29 02:08:05;;;;;;;13.43;4.80;;;;;;;-0.52;80.75;99891.98;1778794;80;20984;-37
2022/01/29 02:10:31;;;;;;;13.68;4.80;;;;;;;-0.51;80.85;99881.20;1756950;81;21004;-38
2022/01/29 02:13:02;;;;;;;10.55;3.62;;;;;;;-0.54;81.11;99888.53;1778833;81;21003;-39
2022/01/29 02:15:27;;;;;;;15.48;5.45;;;;;;;-0.53;81.12;99879.05;1778299;80;21011;-38
2022/01/29 02:17:54;;;;;;;11.70;4.95;;;;;;;-0.51;81.07;99878.62;1778866;80;21030;-38
2022/01/29 02:20:24;;;;;;;12.70;4.80;;;;;;;-0.47;81.14;99882.50;1778715;80;21511;-38
2022/01/29 02:22:51;;;;;;;11.75;4.62;;;;;;;-0.48;80.89;99879.48;1778972;81;20988;-39
2022/01/29 02:25:34;;;;;;;12.35;5.35;;;;;;;-0.50;80.91;99876.03;1778920;80;20987;-39
2022/01/29 02:28:18;;;;;;;10.00;5.15;;;;;;;-0.50;80.91;99872.16;1778021;80;20984;-39
2022/01/29 02:30:48;;;;;;;10.70;4.90;;;;;;;-0.45;81.16;99871.73;1778809;81;21047;-38
2022/01/29 02:33:16;;;;;;;11.48;5.17;;;;;;;-0.44;80.96;99874.76;1778982;80;20996;-38
2022/01/29 02:35:48;;;;;;;11.35;4.80;;;;;;;-0.47;80.92;99863.13;1778884;80;20995;-38
2022/01/29 02:38:19;;;;;;;11.80;4.50;;;;;;;-0.43;80.92;99866.13;1757372;81;21461;-38
2022/01/29 02:43:21;;;;;;;13.68;4.95;;;;;;;-0.40;80.95;99854.50;1701844;82;21102;-38
2022/01/29 02:45:50;;;;;;;11.50;4.58;;;;;;;-0.47;80.74;99858.40;1722024;82;21807;-38
2022/01/29 02:48:16;;;;;;;11.95;5.30;;;;;;;-0.53;80.69;99853.22;1722212;83;21033;-38
2022/01/29 02:50:42;;;;;;;11.75;4.80;;;;;;;-0.51;80.87;99847.20;1709708;84;21006;-38
2022/01/29 02:53:09;;;;;;;12.80;5.58;;;;;;;-0.48;80.90;99849.77;1709620;82;20997;-39
2022/01/29 02:55:35;;;;;;;14.70;5.33;;;;;;;-0.50;81.00;99848.06;1709744;84;20978;-39
2022/01/29 02:58:02;;;;;;;16.80;5.37;;;;;;;-0.59;80.83;99856.67;1709642;84;21621;-39
2022/01/29 03:00:28;;;;;;;16.23;6.33;;;;;;;-0.59;80.97;99856.67;1709824;84;20997;-38
2022/01/29 03:02:54;;;;;;;12.88;6.17;;;;;;;-0.60;80.80;99862.28;1709617;84;21046;-40
2022/01/29 03:05:19;;;;;;;14.15;6.65;;;;;;;-0.61;81.15;99860.55;1709749;84;21042;-38
2022/01/29 03:07:45;;;;;;;15.48;7.12;;;;;;;-0.63;81.22;99851.94;1709629;84;21010;-39
2022/01/29 03:10:12;;;;;;;14.43;6.30;;;;;;;-0.65;81.20;99848.50;1709665;84;21003;-39
2022/01/29 03:12:40;;;;;;;14.68;6.42;;;;;;;-0.61;81.21;99855.82;1709873;84;21438;-39
2022/01/29 03:15:07;;;;;;;16.70;6.08;;;;;;;-0.65;81.16;99854.11;1709581;84;21615;-39
2022/01/29 03:17:33;;;;;;;;;;;;;;;-0.72;81.31;99851.09;1712409;82;20994;-38
2022/01/29 03:19:59;;;;;;;13.08;5.62;;;;;;;-0.73;81.36;99844.20;1709654;83;20158;-39
2022/01/29 03:22:24;;;;;;;13.60;5.92;;;;;;;-0.74;81.36;99844.64;1709630;84;21422;-38
2022/01/29 03:24:50;;;;;;;13.93;5.62;;;;;;;-0.78;81.48;99838.61;1709654;84;21519;-39
2022/01/29 03:27:16;;;;;;;11.48;5.53;;;;;;;-0.84;81.61;99835.16;1709690;82;20994;-39
2022/01/29 03:29:42;;;;;;;18.75;5.87;;;;;;;-0.84;81.61;99835.16;1709624;82;20971;-38
2022/01/29 03:32:09;;;;;;;18.75;5.62;;;;;;;-0.84;81.74;99837.74;1709593;84;21535;-38
2022/01/29 03:34:35;;;;;;;16.62;5.62;;;;;;;-0.88;81.72;99834.73;1709915;84;21050;-38
2022/01/29 03:37:02;;;;;;;12.85;5.80;;;;;;;-0.84;81.88;99833.87;1709746;84;20996;-38
2022/01/29 03:39:28;;;;;;;14.00;5.78;;;;;;;-0.86;81.93;99836.89;1709835;84;20971;-40
2022/01/29 03:42:00;;;;;;;11.22;5.33;;;;;;;-0.88;81.84;99822.68;1718543;81;21037;-40
2022/01/29 03:44:22;;;;;;;19.12;5.40;;;;;;;-0.84;81.84;99819.23;1736585;82;21041;-38
2022/01/29 03:46:48;;;;;;;11.33;5.22;;;;;;;-0.85;81.88;99820.55;1737550;82;20966;-39
2022/01/29 03:49:14;;;;;;;15.90;5.40;;;;;;;-0.89;81.80;99828.72;1737653;82;21054;-38
2022/01/29 03:51:39;;;;;;;12.50;4.70;;;;;;;-0.87;81.80;99826.14;1737613;82;21491;-38
2022/01/29 03:54:05;;;;;;;14.23;4.70;;;;;;;-0.90;81.86;99831.30;1737606;82;21537;-38
2022/01/29 03:56:31;;;;;;;13.98;4.75;;;;;;;-0.93;81.85;99823.55;1737546;81;20986;-39
2022/01/29 03:58:57;;;;;;;15.72;5.25;;;;;;;-0.89;82.01;99828.72;1737723;82;21017;-38
2022/01/29 04:01:22;;;;;;;11.12;4.37;;;;;;;-0.89;81.88;99827.44;1737584;82;20988;-38
2022/01/29 04:03:49;;;;;;;9.65;4.30;;;;;;;-0.88;81.96;99825.70;1706447;82;20994;-38
2022/01/29 04:06:15;;;;;;;15.40;4.78;;;;;;;-1.02;82.07;99827.86;1737585;82;21468;-38
2022/01/29 04:08:42;;;;;;;11.80;4.37;;;;;;;-0.91;82.14;99830.45;1737599;82;21045;-39
2022/01/29 04:11:11;;;;;;;;;;;;;;;-0.98;82.15;99822.27;1740114;82;21475;-38
2022/01/29 04:13:41;;;;;;;13.32;4.85;;;;;;;-0.96;82.20;99827.00;1737588;82;20139;-39
2022/01/29 04:16:07;;;;;;;15.53;5.15;;;;;;;-0.95;82.24;99822.25;1737510;81;20995;-39
2022/01/29 04:18:33;;;;;;;14.33;5.15;;;;;;;-0.94;82.28;99818.82;1737561;82;21005;-39
2022/01/29 04:20:58;;;;;;;14.73;5.08;;;;;;;-0.91;82.32;99818.83;1737643;82;20986;-38
2022/01/29 04:23:24;;;;;;;13.18;5.00;;;;;;;-0.88;82.28;99817.95;1737579;82;21479;-38
2022/01/29 04:25:52;;;;;;;12.50;4.97;;;;;;;-0.83;82.30;99809.34;1737619;82;20993;-39
2022/01/29 04:28:20;;;;;;;12.00;4.90;;;;;;;-0.81;82.27;99802.45;1737490;81;21018;-39
2022/01/29 04:30:52;;;;;;;14.47;5.05;;;;;;;-0.80;82.26;99804.19;1737639;82;20993;-38
2022/01/29 04:35:51;;;;;;;11.90;5.12;;;;;;;-0.78;82.17;99799.88;1737575;82;20990;-38
2022/01/29 04:38:18;;;;;;;15.88;5.42;;;;;;;-0.72;82.23;99796.86;1737529;82;20962;-39
2022/01/29 04:40:44;;;;;;;16.80;6.30;;;;;;;-0.70;82.15;99793.84;1737697;82;21514;-39
2022/01/29 04:43:10;;;;;;;17.05;5.95;;;;;;;-0.68;82.09;99798.13;1737436;81;21014;-39
2022/01/29 04:45:35;;;;;;;18.32;6.17;;;;;;;-0.63;81.94;99803.30;1737248;82;20986;-38
2022/01/29 04:48:02;;;;;;;11.78;5.22;;;;;;;-0.63;81.85;99805.88;1737585;82;20962;-38
2022/01/29 04:50:28;;;;;;;15.85;5.78;;;;;;;-0.61;81.75;99806.30;1737578;82;20970;-38
2022/01/29 04:52:53;;;;;;;16.48;6.08;;;;;;;-0.61;81.66;99808.03;1737489;82;21038;-38
2022/01/29 04:55:19;;;;;;;15.88;5.95;;;;;;;-0.63;81.54;99813.63;1737553;81;21127;-38
2022/01/29 04:57:45;;;;;;;11.33;5.33;;;;;;;-0.61;81.66;99805.45;1737619;82;21478;-38
2022/01/29 05:00:21;;;;;;;17.02;5.30;;;;;;;-0.63;81.63;99804.16;1737565;82;21498;-39
2022/01/29 05:02:53;;;;;;;11.93;5.58;;;;;;;-0.69;81.77;99798.13;1737535;82;21009;-39
2022/01/29 05:05:20;;;;;;;16.60;6.05;;;;;;;-0.60;81.86;99800.28;1737598;82;20997;-38
2022/01/29 05:07:46;;;;;;;18.15;5.75;;;;;;;-0.59;81.83;99794.67;1737660;81;20997;-38
2022/01/29 05:10:14;;;;;;;16.32;6.10;;;;;;;-0.60;81.65;99795.12;1737512;82;20994;-39
2022/01/29 05:15:48;;;;;;;15.60;5.58;;;;;;;-0.57;81.68;99790.36;1737567;82;21059;-39
2022/01/29 05:28:38;;;;;;;14.80;5.70;;;;;;;-0.65;81.65;99772.75;1737540;82;20986;-39
2022/01/29 05:31:03;;;;;;;15.38;5.90;;;;;;;-0.63;81.77;99782.20;1737615;82;21033;-38
2022/01/29 05:33:29;;;;;;;15.00;6.50;;;;;;;-0.61;81.89;99777.03;1737568;82;21526;-38
2022/01/29 05:35:55;;;;;;;19.20;6.20;;;;;;;-0.58;81.84;99775.74;1737507;82;21668;-38
2022/01/29 05:38:21;;;;;;;19.42;6.00;;;;;;;-0.57;81.84;99777.88;1706332;82;20997;-39
2022/01/29 05:40:47;;;;;;;20.43;6.62;;;;;;;-0.57;81.88;99774.86;1737478;82;21001;-38
2022/01/29 05:43:12;;;;;;;17.48;6.30;;;;;;;-0.57;82.03;99768.84;1735904;81;21062;-38
2022/01/29 05:45:38;;;;;;;23.00;6.03;;;;;;;-0.55;81.96;99758.07;1735152;83;21002;-38
2022/01/29 05:48:05;;;;;;;15.45;6.05;;;;;;;-0.59;82.06;99754.20;1735176;83;21030;-39
2022/01/29 05:50:31;;;;;;;20.30;6.85;;;;;;;-0.58;82.15;99744.75;1735311;83;20999;-38
2022/01/29 05:52:56;;;;;;;22.35;6.75;;;;;;;-0.59;82.17;99740.42;1735140;83;21013;-38
2022/01/29 05:55:22;;;;;;;17.57;5.85;;;;;;;-0.56;82.28;99735.27;1735106;83;21006;-38
2022/01/29 05:57:48;;;;;;;26.73;7.30;;;;;;;-0.55;82.35;99731.80;1735142;83;20974;-39
2022/01/29 06:00:15;;;;;;;19.57;5.87;;;;;;;-0.57;82.58;99728.80;1735120;83;20998;-38
2022/01/29 06:02:41;;;;;;;19.60;5.78;;;;;;;-0.62;82.85;99714.59;1735242;83;21030;-39
2022/01/29 06:05:07;;;;;;;16.15;5.55;;;;;;;-0.58;82.92;99715.03;1735137;83;20999;-38
2022/01/29 06:07:33;;;;;;;20.15;5.65;;;;;;;-0.56;82.77;99710.72;1735400;83;21045;-39
2022/01/29 06:09:59;;;;;;;19.70;5.30;;;;;;;-0.52;82.95;99716.30;1735167;83;20994;-39
2022/01/29 06:12:25;;;;;;;15.40;5.20;;;;;;;-0.50;82.98;99712.42;1735134;83;21030;-39
2022/01/29 06:14:51;;;;;;;17.60;5.70;;;;;;;-0.47;82.96;99711.13;1735115;83;20962;-38
2022/01/29 06:17:17;;;;;;;16.55;5.22;;;;;;;-0.49;83.08;99710.25;1735170;83;20998;-41
2022/01/29 06:19:42;;;;;;;15.38;4.53;;;;;;;-0.48;83.10;99714.13;1735222;82;21479;-39
2022/01/29 06:22:12;;;;;;;13.45;4.60;;;;;;;-0.47;83.23;99717.14;1735150;83;21006;-39
2022/01/29 06:24:36;;;;;;;14.47;4.60;;;;;;;-0.41;83.21;99712.38;1734686;83;21018;-40
2022/01/29 06:27:02;;;;;;;17.67;5.05;;;;;;;-0.43;83.32;99711.09;1735200;83;21463;-40
2022/01/29 06:29:28;;;;;;;21.27;5.17;;;;;;;-0.40;83.31;99715.38;1735173;83;20966;-39
2022/01/29 06:31:54;;;;;;;20.55;5.37;;;;;;;-0.43;83.33;99718.84;1735178;83;21546;-39
2022/01/29 06:34:19;;;;;;;18.32;5.12;;;;;;;-0.40;83.39;99720.55;1735163;83;21002;-39
2022/01/29 06:36:45;;;;;;;14.30;5.60;;;;;;;-0.45;83.43;99720.58;1735248;83;21598;-39
2022/01/29 06:39:11;;;;;;;20.75;5.47;;;;;;;-0.46;83.97;99706.37;1735103;83;20993;-38
2022/01/29 06:41:38;;;;;;;18.55;5.53;;;;;;;-0.46;83.97;99706.37;1708175;83;20998;-39
2022/01/29 06:44:05;;;;;;;14.43;5.10;;;;;;;-0.43;83.88;99707.22;1765160;81;20990;-40
2022/01/29 06:46:30;;;;;;;19.55;5.85;;;;;;;-0.40;83.84;99698.17;1769549;81;21034;-39
2022/01/29 06:48:56;;;;;;;18.32;5.62;;;;;;;-0.39;83.79;99697.28;1769521;81;21001;-39
2022/01/29 06:51:22;;;;;;;14.85;5.10;;;;;;;-0.39;83.99;99692.12;1769530;81;21024;-39
2022/01/29 06:53:48;;;;;;;23.90;5.12;;;;;;;-0.39;83.94;99692.12;1769467;81;21004;-39
2022/01/29 06:56:13;;;;;;;11.18;4.70;;;;;;;-0.35;84.01;99688.23;1769586;81;20970;-39
2022/01/29 06:58:39;;;;;;;21.48;6.08;;;;;;;-0.32;83.92;99680.48;1769518;81;20997;-38
2022/01/29 07:01:05;;;;;;;16.73;5.08;;;;;;;-0.36;84.22;99683.92;1769695;81;20960;-39
2022/01/29 07:03:31;;;;;;;16.60;5.00;;;;;;;-0.36;84.21;99681.34;1769454;81;20976;-39
2022/01/29 07:05:56;;;;;;;16.80;5.85;;;;;;;-0.32;84.26;99677.90;1769492;81;21013;-39
2022/01/29 07:08:22;;;;;;;16.82;5.35;;;;;;;-0.31;84.55;99679.59;1769435;81;20992;-39
2022/01/29 07:10:49;;;;;;;30.97;11.10;;;;;;;-0.28;84.68;99680.89;1769593;81;20942;-40
2022/01/29 07:13:15;;;;;;;20.20;7.30;;;;;;;-0.33;84.72;99672.29;1769753;81;21012;-39
2022/01/29 07:15:41;;;;;;;23.27;6.83;;;;;;;-0.28;84.60;99661.50;1769551;81;20973;-39
2022/01/29 07:18:07;;;;;;;22.87;7.20;;;;;;;-0.25;84.55;99667.95;1769540;81;20973;-40
2022/01/29 07:20:32;;;;;;;21.45;7.67;;;;;;;-0.18;84.54;99663.59;1769593;81;21016;-40
2022/01/29 07:22:58;;;;;;;23.30;7.17;;;;;;;-0.17;84.54;99653.25;1769581;81;20972;-39
2022/01/29 07:25:25;;;;;;;19.40;5.92;;;;;;;-0.13;84.44;99656.23;1769728;81;20961;-39
2022/01/29 07:27:51;;;;;;;19.27;6.15;;;;;;;-0.10;84.31;99652.34;1769851;81;21008;-39
2022/01/29 07:30:17;;;;;;;25.35;7.35;;;;;;;-0.10;84.37;99646.33;1769740;81;21542;-38
2022/01/29 07:32:45;;;;;;;22.70;7.40;;;;;;;-0.08;84.45;99649.31;1769656;81;20968;-38
2022/01/29 07:35:12;;;;;;;20.27;6.30;;;;;;;0.01;84.58;99638.05;1769631;81;20972;-38
2022/01/29 07:37:38;;;;;;;25.12;7.45;;;;;;;0.08;84.49;99629.83;1769827;81;20938;-39
2022/01/29 07:40:06;;;;;;;22.25;6.78;;;;;;;0.13;84.53;99622.91;1769660;81;20965;-39
2022/01/29 07:42:31;;;;;;;;;;;;;;;0.21;84.57;99610.75;1768714;81;21342;-39
2022/01/29 07:44:57;;;;;;;26.30;7.03;;;;;;;0.25;84.51;99612.87;1737640;82;20384;-39
2022/01/29 07:47:23;;;;;;;19.82;6.30;;;;;;;0.37;84.24;99608.91;1737564;81;21049;-39
2022/01/29 07:49:48;;;;;;;18.25;6.28;;;;;;;0.45;84.20;99604.50;1737599;82;20970;-39
2022/01/29 07:52:14;;;;;;;21.65;6.03;;;;;;;0.61;84.26;99605.67;1706513;82;21049;-39
2022/01/29 07:54:40;;;;;;;18.77;5.95;;;;;;;0.71;84.01;99605.98;1737572;82;21002;-39
2022/01/29 07:57:06;;;;;;;23.92;7.22;;;;;;;0.73;83.67;99589.58;1737587;82;20974;-39
2022/01/29 07:59:32;;;;;;;22.45;6.40;;;;;;;0.73;83.67;99589.58;1737584;82;21069;-39
2022/01/29 08:01:57;;;;;;;23.07;6.42;;;;;;;0.84;83.37;99595.09;1737596;82;21527;-39
2022/01/29 08:04:24;;;;;;;29.23;7.25;;;;;;;0.91;83.30;99592.41;1737500;82;21033;-38
2022/01/29 08:06:52;;;;;;;24.00;5.93;;;;;;;0.93;83.14;99587.22;1737831;82;21045;-39
2022/01/29 08:09:18;;;;;;;16.07;5.83;;;;;;;0.98;83.09;99582.81;1736786;82;21029;-40
2022/01/29 08:11:44;;;;;;;26.05;6.53;;;;;;;0.99;83.10;99575.48;1737569;82;20982;-39
2022/01/29 08:14:10;;;;;;;26.60;7.05;;;;;;;1.00;83.01;99574.62;1737718;82;21025;-39
2022/01/29 08:16:35;;;;;;;22.90;6.50;;;;;;;1.04;83.10;99563.34;1737586;82;21032;-39
2022/01/29 08:19:01;;;;;;;17.52;6.45;;;;;;;1.05;83.06;99569.36;1737511;82;20974;-38
2022/01/29 08:21:27;;;;;;;24.95;6.33;;;;;;;1.08;83.07;99562.42;1737567;82;20997;-39
2022/01/29 08:23:52;;;;;;;19.30;6.12;;;;;;;1.14;83.08;99554.55;1737538;82;21032;-39
2022/01/29 08:26:18;;;;;;;20.57;6.80;;;;;;;1.21;82.82;99550.61;1737562;82;20991;-39
2022/01/29 08:28:44;;;;;;;21.75;7.00;;;;;;;1.27;82.91;99542.30;1737582;82;21025;-39
2022/01/29 08:31:10;;;;;;;22.60;7.12;;;;;;;1.27;82.70;99528.05;1737731;82;20985;-39
2022/01/29 08:33:36;;;;;;;29.57;8.85;;;;;;;1.29;82.62;99538.39;1737551;81;21506;-39
2022/01/29 08:36:03;;;;;;;28.00;8.10;;;;;;;1.32;82.74;99532.73;1737644;82;21478;-40
2022/01/29 08:38:29;;;;;;;39.18;9.93;;;;;;;1.33;82.64;99538.80;1737697;82;21018;-39
2022/01/29 08:40:55;;;;;;;26.97;8.75;;;;;;;1.33;82.76;99525.39;1737599;82;20998;-37
2022/01/29 08:43:22;;;;;;;27.55;8.28;;;;;;;1.45;82.80;99532.56;1737408;81;21006;-39
2022/01/29 08:45:50;;;;;;;23.05;7.40;;;;;;;1.45;82.55;99523.05;1737690;82;21462;-39
2022/01/29 08:48:16;;;;;;;34.98;8.53;;;;;;;1.45;82.35;99524.34;1737625;81;20997;-38
2022/01/29 08:50:41;;;;;;;28.00;7.78;;;;;;;1.33;82.15;99528.43;1737668;82;20970;-39
2022/01/29 08:53:07;;;;;;;25.12;8.53;;;;;;;1.39;82.33;99514.08;1737607;82;21006;-40
2022/01/29 08:55:36;;;;;;;25.25;8.90;;;;;;;1.45;82.47;99515.28;1737511;81;21084;-39
2022/01/29 08:58:01;;;;;;;;;;;;;;;1.54;82.53;99520.77;1740056;81;21017;-45
2022/01/29 09:00:26;;;;;;;24.12;7.92;;;;;;;1.58;82.30;99507.33;1737536;82;20146;-40
2022/01/29 09:02:52;;;;;;;30.12;9.18;;;;;;;1.64;82.13;99515.03;1737457;82;20998;-40
2022/01/29 09:05:18;;;;;;;27.20;9.35;;;;;;;1.82;82.49;99508.67;1736967;82;21025;-41
2022/01/29 09:07:44;;;;;;;25.88;9.28;;;;;;;1.89;82.12;99505.09;1738060;81;21001;-38
2022/01/29 09:10:12;;;;;;;25.35;8.73;;;;;;;2.06;81.84;99495.75;1767592;81;20987;-40
2022/01/29 09:12:38;;;;;;;;;;;;;;;2.11;80.98;99492.61;1771068;81;20971;-39
2022/01/29 09:15:04;;;;;;;23.38;8.60;;;;;;;2.16;80.90;99493.39;1767223;81;20552;-40
2022/01/29 09:17:30;;;;;;;27.13;8.50;;;;;;;2.14;81.04;99492.56;1753282;80;20978;-39
2022/01/29 09:19:56;;;;;;;28.50;7.25;;;;;;;2.10;81.06;99481.39;1737460;82;22169;-41
2022/01/29 09:22:22;;;;;;;25.37;7.47;;;;;;;2.11;80.77;99486.12;1747837;81;21535;-40
2022/01/29 09:24:47;;;;;;;33.10;7.42;;;;;;;2.23;80.96;99487.20;1747614;82;21471;-40
2022/01/29 09:27:13;;;;;;;28.20;7.75;;;;;;;2.29;80.83;99478.03;1747650;81;21619;-38
2022/01/29 09:29:39;;;;;;;29.75;8.00;;;;;;;2.38;80.91;99467.05;1747648;82;21506;-39
2022/01/29 09:32:06;;;;;;;21.50;7.65;;;;;;;2.37;80.53;99464.06;1747583;82;21004;-39
2022/01/29 09:34:32;;;;;;;26.12;7.72;;;;;;;2.41;80.21;99452.27;1747799;82;21117;-39
2022/01/29 09:36:58;;;;;;;28.02;8.00;;;;;;;2.47;80.19;99455.19;1747707;82;21506;-39
2022/01/29 09:39:24;;;;;;;25.62;7.90;;;;;;;2.53;80.17;99448.59;1747733;81;21012;-40
2022/01/29 09:41:50;;;;;;;27.48;8.15;;;;;;;2.57;80.26;99444.20;1747707;82;20996;-40
2022/01/29 09:44:16;;;;;;;27.85;9.08;;;;;;;2.57;79.80;99442.91;1747495;82;21021;-39
2022/01/29 09:46:44;;;;;;;28.50;8.60;;;;;;;2.62;79.94;99444.52;1747598;82;21032;-39
2022/01/29 09:49:10;;;;;;;30.17;8.30;;;;;;;2.68;80.17;99445.67;1747489;82;21478;-39
2022/01/29 09:51:38;;;;;;;29.43;8.53;;;;;;;2.61;79.62;99437.59;1747943;82;21008;-39
2022/01/29 09:54:05;;;;;;;36.77;9.10;;;;;;;2.60;79.57;99448.02;1747698;82;20996;-39
2022/01/29 09:56:32;;;;;;;29.03;8.93;;;;;;;2.57;79.46;99441.61;1747923;82;20973;-38
2022/01/29 09:58:58;;;;;;;30.48;8.78;;;;;;;2.60;79.96;99442.40;1747738;82;21505;-39
2022/01/29 10:01:24;;;;;;;36.70;8.40;;;;;;;2.57;79.88;99438.55;1747618;81;21091;-39
2022/01/29 10:04:03;;;;;;;32.38;8.00;;;;;;;2.61;79.94;99438.05;1747646;82;21028;-39
2022/01/29 10:06:29;;;;;;;29.85;7.65;;;;;;;2.56;80.04;99416.06;1747555;82;20973;-40
2022/01/29 10:08:55;;;;;;;30.60;8.43;;;;;;;2.55;79.99;99424.75;1765451;81;20970;-40
2022/01/29 10:11:25;;;;;;;28.07;8.05;;;;;;;2.62;80.05;99425.05;1768693;81;21454;-39
2022/01/29 10:13:52;;;;;;;22.85;7.20;;;;;;;2.68;80.05;99417.56;1775264;81;21009;-39
2022/01/29 10:16:25;;;;;;;27.05;8.63;;;;;;;2.62;80.01;99413.36;1775733;81;21323;-39
2022/01/29 10:19:09;;;;;;;25.08;9.55;;;;;;;2.58;80.17;99397.86;1775688;81;21001;-40
2022/01/29 10:21:41;;;;;;;26.80;7.97;;;;;;;2.55;80.26;99396.63;1775675;81;21033;-40
2022/01/29 10:24:18;;;;;;;22.82;6.60;;;;;;;2.54;80.14;99380.20;1775281;81;21478;-40
2022/01/29 10:26:50;;;;;;;30.60;7.40;;;;;;;2.49;80.25;99372.52;1787388;80;21010;-39
2022/01/29 10:29:22;;;;;;;25.08;6.92;;;;;;;2.44;80.58;99370.91;1787457;80;20982;-40
2022/01/29 10:32:03;;;;;;;22.15;7.25;;;;;;;2.41;80.40;99361.88;1787551;80;20979;-39
2022/01/29 10:34:33;;;;;;;37.73;8.80;;;;;;;2.40;80.69;99351.95;1786984;80;20974;-40
2022/01/29 10:37:18;;;;;;;25.72;7.30;;;;;;;2.46;80.69;99356.16;1787487;80;21030;-39
2022/01/29 10:39:49;;;;;;;25.37;6.65;;;;;;;2.48;80.64;99346.59;1787451;80;21384;-39
2022/01/29 10:42:26;;;;;;;27.67;7.55;;;;;;;2.45;80.54;99338.86;1787159;80;20990;-46
2022/01/29 10:44:55;;;;;;;27.15;7.40;;;;;;;2.30;80.59;99327.92;1783464;80;21022;-40
2022/01/29 10:47:22;;;;;;;37.33;8.18;;;;;;;2.44;80.57;99327.64;1782771;80;21009;-39
2022/01/29 10:49:59;;;;;;;26.12;7.20;;;;;;;2.40;80.66;99319.94;1782872;80;21455;-38
2022/01/29 10:52:32;;;;;;;31.23;7.33;;;;;;;2.44;80.65;99313.81;1782720;80;20959;-39
2022/01/29 10:55:05;;;;;;;29.20;7.40;;;;;;;2.39;80.50;99307.41;1782744;80;21034;-39
2022/01/29 10:57:44;;;;;;;27.17;7.58;;;;;;;2.42;80.35;99296.97;1782593;80;20987;-39
2022/01/29 11:00:21;;;;;;;27.37;7.42;;;;;;;2.42;80.55;99291.78;1782715;80;21480;-40
2022/01/29 11:02:48;;;;;;;25.37;7.58;;;;;;;2.43;80.58;99282.24;1782835;80;21025;-40
2022/01/29 11:05:15;;;;;;;27.82;7.20;;;;;;;2.42;80.53;99266.25;1782985;80;20971;-40
2022/01/29 11:07:50;;;;;;;29.07;8.20;;;;;;;2.40;80.53;99261.12;1782811;80;21019;-39
2022/01/29 11:10:13;;;;;;;29.37;7.22;;;;;;;2.45;80.59;99248.02;1782265;80;20975;-39
2022/01/29 11:12:45;;;;;;;29.60;8.63;;;;;;;2.39;80.63;99246.87;1782813;80;21472;-39
2022/01/29 11:15:11;;;;;;;27.25;8.00;;;;;;;2.39;80.63;99244.28;1782751;80;20977;-40
2022/01/29 11:17:37;;;;;;;22.43;7.47;;;;;;;2.39;80.82;99244.28;1782995;80;20939;-40
2022/01/29 11:20:05;;;;;;;25.97;7.70;;;;;;;2.33;80.69;99238.78;1782667;80;20978;-40
2022/01/29 11:22:39;;;;;;;26.23;6.85;;;;;;;2.14;80.95;99237.48;1782627;80;21046;-40
2022/01/29 11:25:21;;;;;;;26.20;7.22;;;;;;;2.21;80.73;99223.03;1781437;80;20955;-40
2022/01/29 11:27:47;;;;;;;22.27;7.20;;;;;;;2.24;80.81;99219.08;1781912;80;21045;-40
2022/01/29 11:30:15;;;;;;;30.00;7.42;;;;;;;2.25;80.77;99214.73;1782721;80;20971;-40
2022/01/29 11:32:52;;;;;;;25.37;7.45;;;;;;;2.20;80.94;99203.61;1782738;80;21459;-40
2022/01/29 11:35:34;;;;;;;21.40;7.03;;;;;;;2.16;81.20;99200.67;1782959;80;21440;-40
2022/01/29 11:38:07;;;;;;;22.93;7.03;;;;;;;2.19;81.39;99191.08;1782768;80;21484;-40
2022/01/29 11:40:57;;;;;;;22.07;6.33;;;;;;;2.14;81.93;99188.19;1782919;80;20990;-40
2022/01/29 11:43:27;;;;;;;20.35;6.55;;;;;;;2.27;81.88;99194.79;1782728;80;20999;-40
2022/01/29 11:45:59;;;;;;;19.40;6.67;;;;;;;2.21;82.00;99180.22;1782836;80;21503;-40
2022/01/29 11:48:38;;;;;;;25.43;7.10;;;;;;;2.22;82.28;99178.05;1782548;80;20987;-39
2022/01/29 11:51:09;;;;;;;21.68;7.53;;;;;;;2.12;82.60;99170.06;1782409;80;21026;-40